createdAt,value
2019-02-12T00:01:55.822Z,18.00
2019-02-12T00:04:23.066Z,12.87
2019-02-12T00:06:50.470Z,14.23
2019-02-12T00:09:17.705Z,17.40
2019-02-12T00:11:44.976Z,12.07
2019-02-12T00:14:12.208Z,11.83
2019-02-12T00:16:39.407Z,9.73
2019-02-12T00:19:06.540Z,13.17
2019-02-12T00:21:33.802Z,14.87
2019-02-12T00:24:01.069Z,13.30
2019-02-12T00:26:28.341Z,14.63
2019-02-12T00:28:55.683Z,12.67
2019-02-12T00:31:22.950Z,10.10
2019-02-12T00:33:50.216Z,10.63
2019-02-12T00:36:17.356Z,11.77
2019-02-12T00:38:44.653Z,13.30
2019-02-12T00:41:11.903Z,15.90
2019-02-12T00:43:39.305Z,16.63
2019-02-12T00:46:06.545Z,9.63
2019-02-12T00:48:33.799Z,10.83
2019-02-12T00:51:01.058Z,12.47
2019-02-12T00:53:28.326Z,11.53
2019-02-12T00:55:55.612Z,13.67
2019-02-12T00:58:22.842Z,13.17
2019-02-12T01:00:50.077Z,12.27
2019-02-12T01:03:17.260Z,15.23
2019-02-12T01:05:44.397Z,11.17
2019-02-12T01:08:11.663Z,14.47
2019-02-12T01:10:39.001Z,13.23
2019-02-12T01:13:06.255Z,17.00
2019-02-12T01:15:33.421Z,17.70
2019-02-12T01:18:00.656Z,16.13
2019-02-12T01:20:27.933Z,16.03
2019-02-12T01:22:55.270Z,17.30
2019-02-12T01:25:22.634Z,13.07
2019-02-12T01:27:49.902Z,15.83
2019-02-12T01:30:17.236Z,21.07
2019-02-12T01:32:44.580Z,14.40
2019-02-12T01:35:11.942Z,14.90
2019-02-12T01:37:39.186Z,15.30
2019-02-12T01:40:08.740Z,18.50
2019-02-12T01:42:35.925Z,17.13
2019-02-12T01:45:03.505Z,17.00
2019-02-12T01:47:30.663Z,12.60
2019-02-12T01:49:57.918Z,16.33
2019-02-12T01:52:25.198Z,15.67
2019-02-12T01:54:52.389Z,13.40
2019-02-12T01:57:19.615Z,12.40
2019-02-12T01:59:46.905Z,13.43
2019-02-12T02:02:14.169Z,14.07
2019-02-12T02:04:41.441Z,19.27
2019-02-12T02:07:08.818Z,13.10
2019-02-12T02:09:36.073Z,14.97
2019-02-12T02:12:03.232Z,16.80
2019-02-12T02:14:30.518Z,16.93
2019-02-12T02:16:57.810Z,16.90
2019-02-12T02:19:25.175Z,12.60
2019-02-12T02:21:52.456Z,20.50
2019-02-12T02:24:19.705Z,13.13
2019-02-12T02:26:46.982Z,13.07
2019-02-12T02:29:14.125Z,14.87
2019-02-12T02:31:41.290Z,13.13
2019-02-12T02:34:08.602Z,15.50
2019-02-12T02:36:35.854Z,14.60
2019-02-12T02:39:04.385Z,17.93
2019-02-12T02:41:31.600Z,16.53
2019-02-12T02:43:58.875Z,16.50
2019-02-12T02:46:26.141Z,24.47
2019-02-12T02:48:53.500Z,14.60
2019-02-12T02:51:20.647Z,13.73
2019-02-12T02:53:47.899Z,10.93
2019-02-12T02:56:15.146Z,12.70
2019-02-12T02:58:42.275Z,13.43
2019-02-12T03:01:09.510Z,15.80
2019-02-12T03:03:36.774Z,11.10
2019-02-12T03:06:04.055Z,14.97
2019-02-12T03:08:31.327Z,13.67
2019-02-12T03:10:58.599Z,14.37
2019-02-12T03:13:25.849Z,16.43
2019-02-12T03:15:53.150Z,13.97
2019-02-12T03:18:20.385Z,14.40
2019-02-12T03:20:47.648Z,15.97
2019-02-12T03:23:14.874Z,15.03
2019-02-12T03:25:42.216Z,13.37
2019-02-12T03:28:09.353Z,14.47
2019-02-12T03:30:36.666Z,10.40
2019-02-12T03:33:04.020Z,11.30
2019-02-12T03:35:31.267Z,10.63
2019-02-12T03:37:58.426Z,14.57
2019-02-12T03:40:25.689Z,13.73
2019-02-12T03:42:52.989Z,12.43
2019-02-12T03:45:20.329Z,12.33
2019-02-12T03:47:47.602Z,13.57
2019-02-12T03:50:14.854Z,15.30
2019-02-12T03:52:42.024Z,16.57
2019-02-12T03:55:10.284Z,15.43
2019-02-12T03:57:38.631Z,14.37
2019-02-12T04:00:08.058Z,14.07
2019-02-12T04:02:35.330Z,14.57
2019-02-12T04:07:39.949Z,15.57
2019-02-12T04:10:07.232Z,12.90
2019-02-12T04:12:34.598Z,15.20
2019-02-12T04:15:01.753Z,12.83
2019-02-12T04:17:29.137Z,11.77
2019-02-12T04:19:56.394Z,14.67
2019-02-12T04:22:23.684Z,16.60
2019-02-12T04:24:50.837Z,15.43
2019-02-12T04:27:18.128Z,14.77
2019-02-12T04:29:45.499Z,15.93
2019-02-12T04:32:12.852Z,12.37
2019-02-12T04:34:40.163Z,15.23
2019-02-12T04:37:07.443Z,16.80
2019-02-12T04:39:34.733Z,11.40
2019-02-12T04:42:01.997Z,15.13
2019-02-12T04:44:29.266Z,10.47
2019-02-12T04:46:56.521Z,15.30
2019-02-12T04:49:23.831Z,15.17
2019-02-12T04:51:51.003Z,19.40
2019-02-12T04:54:18.278Z,12.37
2019-02-12T04:56:45.572Z,14.83
2019-02-12T04:59:13.914Z,15.50
2019-02-12T05:01:41.101Z,11.70
2019-02-12T05:04:08.511Z,12.50
2019-02-12T05:06:35.855Z,19.67
2019-02-12T05:09:19.866Z,18.17
2019-02-12T05:11:58.391Z,11.40
2019-02-12T05:14:25.590Z,12.97
2019-02-12T05:16:52.876Z,12.40
2019-02-12T05:19:20.184Z,15.10
2019-02-12T05:21:47.460Z,14.50
2019-02-12T05:24:14.761Z,10.50
2019-02-12T05:26:41.954Z,14.97
2019-02-12T05:29:09.234Z,16.37
2019-02-12T05:31:36.679Z,23.63
2019-02-12T05:34:03.936Z,17.30
2019-02-12T05:36:31.237Z,16.17
2019-02-12T05:38:58.466Z,14.87
2019-02-12T05:41:25.784Z,14.70
2019-02-12T05:43:53.099Z,18.70
2019-02-12T05:46:20.358Z,16.27
2019-02-12T05:48:47.607Z,17.47
2019-02-12T05:51:15.014Z,12.40
2019-02-12T05:53:42.165Z,14.90
2019-02-12T05:56:09.445Z,12.50
2019-02-12T05:58:36.749Z,16.37
2019-02-12T06:01:04.035Z,15.20
2019-02-12T06:03:31.283Z,14.03
2019-02-12T06:05:58.596Z,15.00
2019-02-12T06:08:25.873Z,15.40
2019-02-12T06:10:53.136Z,20.40
2019-02-12T06:13:20.399Z,14.37
2019-02-12T06:15:47.562Z,13.23
2019-02-12T06:18:14.874Z,18.53
2019-02-12T06:20:42.129Z,10.83
2019-02-12T06:23:09.395Z,15.23
2019-02-12T06:25:36.687Z,12.57
2019-02-12T06:28:03.982Z,14.90
2019-02-12T06:30:31.254Z,11.30
2019-02-12T06:33:06.984Z,13.60
2019-02-12T06:35:27.721Z,16.17
2019-02-12T06:37:55.007Z,14.87
2019-02-12T06:40:22.347Z,14.83
2019-02-12T06:42:49.627Z,16.57
2019-02-12T06:45:16.903Z,17.90
2019-02-12T06:47:44.271Z,15.93
2019-02-12T06:50:11.690Z,17.40
2019-02-12T06:52:38.934Z,18.33
2019-02-12T06:55:06.919Z,13.63
2019-02-12T06:57:34.195Z,19.57
2019-02-12T07:00:01.590Z,13.10
2019-02-12T07:03:07.523Z,11.17
2019-02-12T07:05:34.795Z,10.70
2019-02-12T07:08:30.809Z,14.63
2019-02-12T07:11:01.349Z,10.80
2019-02-12T07:13:53.639Z,7.53
2019-02-12T07:16:46.891Z,11.10
2019-02-12T07:19:32.734Z,19.67
2019-02-12T07:22:40.386Z,13.87
2019-02-12T07:25:47.470Z,10.73
2019-02-12T07:28:42.305Z,19.27
2019-02-12T07:31:40.322Z,16.70
2019-02-12T07:34:49.337Z,16.60
2019-02-12T07:37:58.704Z,14.93
2019-02-12T07:41:20.072Z,10.73
2019-02-12T07:44:34.771Z,9.70
2019-02-12T07:48:01.285Z,12.60
2019-02-12T07:51:05.923Z,12.43
2019-02-12T07:53:48.323Z,10.53
2019-02-12T07:57:15.454Z,9.30
2019-02-12T08:00:16.130Z,13.63
2019-02-12T08:03:13.725Z,10.80
2019-02-12T08:06:03.123Z,10.53
2019-02-12T08:09:21.283Z,10.03
2019-02-12T08:12:25.416Z,11.80
2019-02-12T08:15:21.711Z,7.60
2019-02-12T08:18:14.033Z,8.00
2019-02-12T08:21:13.241Z,10.77
2019-02-12T08:24:06.549Z,12.40
2019-02-12T08:27:28.203Z,10.40
2019-02-12T08:30:31.513Z,12.17
2019-02-12T08:33:36.217Z,8.40
2019-02-12T08:36:41.344Z,6.63
2019-02-12T08:39:31.673Z,9.60
2019-02-12T08:42:49.937Z,9.37
2019-02-12T08:46:06.770Z,9.13
2019-02-12T08:49:08.478Z,8.97
2019-02-12T08:52:13.767Z,7.83
2019-02-12T08:55:05.388Z,11.63
2019-02-12T08:57:58.024Z,12.13
2019-02-12T09:00:44.095Z,9.27
2019-02-12T09:03:48.173Z,7.70
2019-02-12T09:06:47.115Z,8.77
2019-02-12T09:09:57.747Z,5.57
2019-02-12T09:13:02.792Z,11.47
2019-02-12T09:16:14.690Z,9.63
2019-02-12T09:19:03.346Z,14.10
2019-02-12T09:22:26.520Z,7.63
2019-02-12T09:25:28.521Z,9.03
2019-02-12T09:28:11.402Z,11.30
2019-02-12T09:31:15.011Z,13.07
2019-02-12T09:34:22.308Z,10.90
2019-02-12T09:37:23.043Z,9.87
2019-02-12T09:40:01.269Z,13.50
2019-02-12T09:43:05.902Z,10.23
2019-02-12T09:46:21.070Z,6.87
2019-02-12T09:49:15.358Z,10.27
2019-02-12T09:52:23.056Z,12.20
2019-02-12T09:55:25.981Z,10.83
2019-02-12T09:58:04.423Z,11.10
2019-02-12T10:00:41.677Z,10.53
2019-02-12T10:03:23.431Z,6.37
2019-02-12T10:06:21.962Z,10.80
2019-02-12T10:09:27.975Z,11.07
2019-02-12T10:12:23.831Z,10.47
2019-02-12T10:15:20.402Z,10.57
2019-02-12T10:18:28.773Z,12.03
2019-02-12T10:21:03.728Z,15.37
2019-02-12T10:24:19.348Z,6.90
2019-02-12T10:26:43.201Z,9.97
2019-02-12T10:29:40.123Z,12.50
2019-02-12T10:32:08.654Z,8.63
2019-02-12T10:34:35.590Z,10.63
2019-02-12T10:37:02.840Z,12.73
2019-02-12T10:39:30.036Z,15.80
2019-02-12T10:41:57.271Z,11.63
2019-02-12T10:44:24.506Z,13.43
2019-02-12T10:46:51.783Z,9.77
2019-02-12T10:49:19.071Z,10.87
2019-02-12T10:51:46.415Z,10.57
2019-02-12T10:54:13.769Z,11.20
2019-02-12T10:56:41.047Z,9.33
2019-02-12T10:59:08.191Z,11.43
2019-02-12T11:01:35.482Z,8.43
2019-02-12T11:04:02.720Z,14.63
2019-02-12T11:06:29.923Z,8.83
2019-02-12T11:08:57.250Z,9.13
2019-02-12T11:11:24.410Z,9.73
2019-02-12T11:13:51.698Z,13.87
2019-02-12T11:16:18.969Z,9.87
2019-02-12T11:18:46.254Z,12.97
2019-02-12T11:21:13.544Z,14.80
2019-02-12T11:23:40.802Z,14.77
2019-02-12T11:26:08.174Z,11.77
2019-02-12T11:28:35.439Z,9.80
2019-02-12T11:31:04.607Z,13.70
2019-02-12T11:33:31.865Z,9.03
2019-02-12T11:35:59.053Z,8.73
2019-02-12T11:38:26.340Z,7.23
2019-02-12T11:40:53.610Z,11.03
2019-02-12T11:43:20.872Z,13.50
2019-02-12T11:45:48.143Z,6.47
2019-02-12T11:48:15.478Z,7.93
2019-02-12T11:50:42.722Z,5.27
2019-02-12T11:53:09.904Z,6.37
2019-02-12T11:55:37.078Z,6.73
2019-02-12T11:58:04.318Z,9.83
2019-02-12T12:00:37.461Z,8.90
2019-02-12T12:03:04.743Z,6.93
2019-02-12T12:05:32.002Z,9.30
2019-02-12T12:07:59.299Z,10.53
2019-02-12T12:10:26.549Z,7.83
2019-02-12T12:12:53.863Z,10.30
2019-02-12T12:15:21.102Z,11.90
2019-02-12T12:17:48.286Z,6.30
2019-02-12T12:20:15.531Z,9.03
2019-02-12T12:22:42.804Z,8.70
2019-02-12T12:25:10.070Z,5.43
2019-02-12T12:27:37.465Z,7.87
2019-02-12T12:30:05.229Z,8.07
2019-02-12T12:32:32.552Z,7.43
2019-02-12T12:34:59.860Z,6.77
2019-02-12T12:37:27.229Z,9.70
2019-02-12T12:39:54.422Z,5.63
2019-02-12T12:42:21.619Z,9.73
2019-02-12T12:44:48.800Z,7.20
2019-02-12T12:47:16.038Z,7.03
2019-02-12T12:49:43.321Z,6.30
2019-02-12T12:52:10.730Z,10.23
2019-02-12T12:54:37.953Z,9.53
2019-02-12T12:57:05.227Z,10.10
2019-02-12T12:59:32.413Z,7.97
2019-02-12T13:01:59.711Z,10.93
2019-02-12T13:04:26.944Z,5.57
2019-02-12T13:06:54.333Z,8.93
2019-02-12T13:09:21.615Z,6.50
2019-02-12T13:11:48.872Z,6.97
2019-02-12T13:14:16.130Z,9.10
2019-02-12T13:16:43.384Z,7.13
2019-02-12T13:19:10.722Z,7.00
2019-02-12T13:21:37.988Z,8.07
2019-02-12T13:24:05.254Z,9.23
2019-02-12T13:26:32.488Z,5.77
2019-02-12T13:28:59.769Z,7.23
2019-02-12T13:31:27.026Z,13.13
2019-02-12T13:33:54.379Z,11.00
2019-02-12T13:36:21.677Z,8.63
2019-02-12T13:38:48.940Z,10.03
2019-02-12T13:41:16.245Z,9.43
2019-02-12T13:43:43.395Z,7.60
2019-02-12T13:46:10.671Z,8.27
2019-02-12T13:48:37.942Z,8.53
2019-02-12T13:51:05.111Z,12.57
2019-02-12T13:53:32.417Z,7.73
2019-02-12T13:55:59.631Z,8.57
2019-02-12T13:58:27.061Z,9.87
2019-02-12T14:00:54.335Z,12.37
2019-02-12T14:03:22.709Z,14.37
2019-02-12T14:05:50.604Z,11.67
2019-02-12T14:08:17.965Z,6.90
2019-02-12T14:10:45.141Z,8.17
2019-02-12T14:13:12.442Z,9.57
2019-02-12T14:15:39.694Z,5.50
2019-02-12T14:18:07.053Z,7.43
2019-02-12T14:20:34.302Z,8.97
2019-02-12T14:23:01.621Z,9.67
2019-02-12T14:25:28.873Z,6.23
2019-02-12T14:27:57.943Z,7.33
2019-02-12T14:30:25.248Z,11.53
2019-02-12T14:32:52.624Z,8.00
2019-02-12T14:35:19.890Z,6.17
2019-02-12T14:37:47.062Z,7.47
2019-02-12T14:40:14.359Z,12.07
2019-02-12T14:42:41.497Z,8.83
2019-02-12T14:45:10.313Z,12.27
2019-02-12T14:47:37.584Z,9.90
2019-02-12T14:50:05.628Z,8.00
2019-02-12T14:52:32.897Z,8.00
2019-02-12T14:55:00.294Z,11.87
2019-02-12T14:57:27.621Z,7.83
2019-02-12T14:59:54.867Z,13.77
2019-02-12T15:02:22.161Z,10.93
2019-02-12T15:04:49.494Z,10.57
2019-02-12T15:07:16.787Z,7.80
2019-02-12T15:09:44.055Z,6.93
2019-02-12T15:12:11.328Z,10.70
2019-02-12T15:14:38.569Z,4.33
2019-02-12T15:17:05.827Z,22.23
2019-02-12T15:19:32.987Z,14.10
2019-02-12T15:22:00.274Z,8.20
2019-02-12T15:24:27.587Z,7.33
2019-02-12T15:26:54.932Z,10.67
2019-02-12T15:29:22.196Z,9.37
2019-02-12T15:31:49.464Z,10.43
2019-02-12T15:34:16.718Z,6.43
2019-02-12T15:36:44.027Z,6.97
2019-02-12T15:39:11.268Z,7.20
2019-02-12T15:41:38.532Z,12.33
2019-02-12T15:44:05.763Z,10.87
2019-02-12T15:46:33.020Z,7.60
2019-02-12T15:49:00.195Z,8.67
2019-02-12T15:51:27.347Z,9.57
2019-02-12T15:53:54.603Z,7.80
2019-02-12T15:56:21.889Z,9.77
2019-02-12T15:58:49.662Z,12.83
2019-02-12T16:01:17.498Z,8.87
2019-02-12T16:03:44.803Z,8.93
2019-02-12T16:06:12.035Z,7.47
2019-02-12T16:08:39.329Z,11.00
2019-02-12T16:11:06.581Z,9.73
2019-02-12T16:13:34.723Z,13.67
2019-02-12T16:16:02.913Z,11.07
2019-02-12T16:18:30.180Z,11.80
2019-02-12T16:20:57.361Z,8.90
2019-02-12T16:23:24.615Z,11.00
2019-02-12T16:25:59.208Z,12.67
2019-02-12T16:28:21.070Z,14.47
2019-02-12T16:30:48.307Z,14.07
2019-02-12T16:33:17.500Z,12.10
2019-02-12T16:35:44.722Z,10.70
2019-02-12T16:38:12.045Z,15.23
2019-02-12T16:40:39.308Z,11.20
2019-02-12T16:43:06.589Z,11.93
2019-02-12T16:45:37.850Z,17.60
2019-02-12T16:48:05.026Z,13.60
2019-02-12T16:50:32.278Z,12.67
2019-02-12T16:52:59.560Z,16.17
2019-02-12T16:55:26.821Z,9.87
2019-02-12T16:57:54.144Z,12.70
2019-02-12T17:00:21.282Z,15.80
2019-02-12T17:02:48.551Z,9.63
2019-02-12T17:05:15.843Z,14.83
2019-02-12T17:07:43.670Z,10.43
2019-02-12T17:10:10.958Z,28.40
2019-02-12T17:12:38.234Z,19.13
2019-02-12T17:15:06.555Z,22.60
2019-02-12T17:17:33.953Z,34.57
2019-02-12T17:20:01.111Z,22.27
2019-02-12T17:22:28.399Z,15.57
2019-02-12T17:24:55.741Z,11.77
2019-02-12T17:27:23.005Z,15.60
2019-02-12T17:29:50.257Z,10.20
2019-02-12T17:32:17.553Z,13.23
2019-02-12T17:34:44.814Z,18.87
2019-02-12T17:37:12.094Z,14.43
2019-02-12T17:39:39.343Z,11.10
2019-02-12T17:42:06.613Z,8.03
2019-02-12T17:44:33.869Z,11.27
2019-02-12T17:47:01.132Z,13.93
2019-02-12T17:49:28.418Z,16.47
2019-02-12T17:51:56.413Z,23.47
2019-02-12T17:54:23.666Z,15.00
2019-02-12T17:56:50.930Z,18.50
2019-02-12T17:59:21.184Z,11.93
2019-02-12T18:01:48.524Z,14.43
2019-02-12T18:04:15.780Z,9.90
2019-02-12T18:06:42.960Z,12.47
2019-02-12T18:09:10.219Z,13.90
2019-02-12T18:11:37.490Z,14.43
2019-02-12T18:14:04.820Z,14.53
2019-02-12T18:16:32.107Z,13.73
2019-02-12T18:18:59.401Z,15.87
2019-02-12T18:21:26.753Z,19.73
2019-02-12T18:23:54.098Z,16.43
2019-02-12T18:26:21.470Z,18.20
2019-02-12T18:28:48.742Z,11.93
2019-02-12T18:31:16.053Z,14.60
2019-02-12T18:33:43.431Z,17.23
2019-02-12T18:36:10.707Z,15.87
2019-02-12T18:38:38.000Z,17.97
2019-02-12T18:41:05.288Z,15.93
2019-02-12T18:43:32.526Z,16.90
2019-02-12T18:45:59.914Z,26.67
2019-02-12T18:48:27.205Z,15.60
2019-02-12T18:50:54.500Z,15.70
2019-02-12T18:53:21.830Z,13.57
2019-02-12T18:55:49.250Z,13.93
2019-02-12T18:58:18.406Z,15.07
2019-02-12T19:00:45.702Z,10.23
2019-02-12T19:03:12.996Z,13.03
2019-02-12T19:05:40.372Z,14.83
2019-02-12T19:08:07.721Z,11.13
2019-02-12T19:10:35.013Z,17.90
2019-02-12T19:13:02.275Z,14.20
2019-02-12T19:15:29.574Z,10.03
2019-02-12T19:18:03.716Z,12.13
2019-02-12T19:20:30.986Z,19.70
2019-02-12T19:22:58.291Z,16.73
2019-02-12T19:25:25.617Z,17.80
2019-02-12T19:27:52.991Z,16.57
2019-02-12T19:30:20.183Z,13.90
2019-02-12T19:32:47.447Z,15.87
2019-02-12T19:35:14.768Z,19.03
2019-02-12T19:37:42.032Z,16.87
2019-02-12T19:40:09.436Z,15.60
2019-02-12T19:42:36.637Z,20.17
2019-02-12T19:45:04.238Z,18.77
2019-02-12T19:47:31.619Z,21.37
2019-02-12T19:49:58.908Z,14.77
2019-02-12T19:52:26.254Z,18.47
2019-02-12T19:54:56.395Z,18.37
2019-02-12T19:57:23.697Z,21.30
2019-02-12T19:59:51.008Z,21.83
2019-02-12T20:02:18.247Z,19.63
2019-02-12T20:04:48.314Z,17.07
2019-02-12T20:07:15.491Z,21.13
2019-02-12T20:09:42.833Z,19.60
2019-02-12T20:12:10.145Z,21.87
2019-02-12T20:14:45.449Z,50.13
2019-02-12T20:17:12.831Z,37.13
2019-02-12T20:19:40.513Z,22.33
2019-02-12T20:22:07.892Z,24.00
2019-02-12T20:24:50.056Z,24.97
2019-02-12T20:27:17.965Z,18.27
2019-02-12T20:29:45.356Z,27.70
2019-02-12T20:32:12.845Z,21.80
2019-02-12T20:34:40.219Z,19.37
2019-02-12T20:37:07.638Z,16.17
2019-02-12T20:39:34.914Z,11.27
2019-02-12T20:42:02.231Z,12.97
2019-02-12T20:44:29.915Z,36.07
2019-02-12T20:46:57.521Z,21.40
2019-02-12T20:49:25.008Z,17.73
2019-02-12T20:51:52.277Z,8.37
2019-02-12T20:54:23.341Z,22.47
2019-02-12T20:56:51.059Z,13.83
2019-02-12T20:59:18.375Z,19.00
2019-02-12T21:01:45.732Z,17.03
2019-02-12T21:04:15.569Z,17.80
2019-02-12T21:06:47.212Z,14.43
2019-02-12T21:09:14.508Z,21.10
2019-02-12T21:11:41.797Z,20.13
2019-02-12T21:14:09.063Z,20.90
2019-02-12T21:16:36.351Z,12.87
2019-02-12T21:19:03.608Z,17.50
2019-02-12T21:21:30.891Z,14.57
2019-02-12T21:23:58.210Z,16.60
2019-02-12T21:26:25.505Z,17.47
2019-02-12T21:28:52.686Z,20.70
2019-02-12T21:31:19.954Z,23.27
2019-02-12T21:33:47.340Z,17.60
2019-02-12T21:36:14.478Z,23.47
2019-02-12T21:38:41.770Z,28.53
2019-02-12T21:41:09.109Z,22.53
2019-02-12T21:43:36.356Z,16.50
2019-02-12T21:46:03.646Z,21.67
2019-02-12T21:48:30.893Z,22.53
2019-02-12T21:50:58.143Z,20.80
2019-02-12T21:53:25.385Z,21.17
2019-02-12T21:55:52.727Z,16.97
2019-02-12T21:58:20.018Z,20.90
2019-02-12T22:00:47.318Z,14.97
2019-02-12T22:03:14.572Z,15.00
2019-02-12T22:05:41.876Z,19.67
2019-02-12T22:08:09.150Z,15.93
2019-02-12T22:10:36.412Z,19.30
2019-02-12T22:13:03.654Z,19.37
2019-02-12T22:15:30.852Z,19.73
2019-02-12T22:17:58.068Z,15.30
2019-02-12T22:20:25.355Z,16.70
2019-02-12T22:22:52.584Z,17.40
2019-02-12T22:25:21.372Z,16.37
2019-02-12T22:27:48.789Z,20.63
2019-02-12T22:30:17.530Z,21.13
2019-02-12T22:32:44.796Z,19.53
2019-02-12T22:35:12.289Z,20.33
2019-02-12T22:37:39.641Z,15.43
2019-02-12T22:40:07.335Z,18.60
2019-02-12T22:42:34.605Z,25.37
2019-02-12T22:45:01.867Z,17.33
2019-02-12T22:47:29.153Z,16.40
2019-02-12T22:49:56.444Z,28.37
2019-02-12T22:52:23.750Z,29.50
2019-02-12T22:54:51.018Z,38.53
2019-02-12T22:57:18.185Z,29.40
2019-02-12T22:59:45.363Z,29.77
2019-02-12T23:02:13.233Z,32.53
2019-02-12T23:04:40.560Z,23.30
2019-02-12T23:07:08.067Z,25.53
2019-02-12T23:09:35.478Z,24.43
2019-02-12T23:12:03.146Z,27.57
2019-02-12T23:14:30.438Z,24.80
2019-02-12T23:16:57.729Z,26.57
2019-02-12T23:19:25.034Z,36.13
2019-02-12T23:21:52.458Z,23.23
2019-02-12T23:24:19.818Z,26.60
2019-02-12T23:26:47.002Z,26.37
2019-02-12T23:29:14.157Z,32.63
2019-02-12T23:31:41.461Z,27.57
2019-02-12T23:34:08.726Z,30.40
2019-02-12T23:36:35.985Z,24.30
2019-02-12T23:39:04.541Z,50.87
2019-02-12T23:41:31.845Z,43.40
2019-02-12T23:43:59.024Z,36.07
2019-02-12T23:46:26.293Z,28.63
2019-02-12T23:48:53.484Z,30.63
2019-02-12T23:51:20.739Z,24.57
2019-02-12T23:53:48.018Z,26.93
2019-02-12T23:56:15.316Z,22.00
2019-02-12T23:58:42.456Z,21.63
